Patten, Maine
Current Conditions -  °F | °C
As of 9:53 PM on Friday 21 Nov 2014 (Local Time) from KMLT Reporting Station
Few Clouds Few Clouds  
Wind Chill:   Ceiling: Unl
Heat Index: 19°   Visibility: 10mi
Dew Point:   Wind: 12mph
Humidity: 57%   Direction: 290°WNW
Pressure: 30.2"   Gusts: 21mph
Location:  45.99°N, 68.45°W
Report Text: KMLT 220253Z AUTO 29010G18KT 10SM FEW031 M07/M14 A3020 RMK AO2 SLP239 T10721144 51020
Loading
Personal Weather Stations






























Interactive Weather Map New forecast layout! Learn more

10-Day Weather Forecast

Advertisements
Track Severe Weather on mobile